Time;durP1;ratioP1;P1;durP2;ratioP2;P2;SDS_P1;SDS_P2;PMS_P1;PMS_P2;Temp;Humidity;BMP_temperature;BMP_pressure;BME280_temperature;BME280_humidity;BME280_pressure;Samples;Min_cycle;Max_cycle;Signal;HPM_P1;HPM_P2
2023/05/19 00:00:56;;;;;;;3.97;2.53;;;13.00;99.90;;;;;;5129739;27;20421;-69
2023/05/19 00:03:23;;;;;;;4.93;2.27;;;13.00;99.90;;;;;;5134687;27;20463;-69
2023/05/19 00:05:52;;;;;;;5.47;2.57;;;12.90;99.90;;;;;;5137032;27;20449;-70
2023/05/19 00:08:19;;;;;;;6.10;2.63;;;12.90;99.90;;;;;;5118874;27;20422;-70
2023/05/19 00:10:45;;;;;;;8.90;2.80;;;12.90;99.90;;;;;;5137805;27;20426;-69
2023/05/19 00:13:11;;;;;;;5.37;2.60;;;12.90;99.90;;;;;;5137577;27;20546;-70
2023/05/19 00:15:37;;;;;;;7.50;2.50;;;12.90;99.90;;;;;;5136257;27;20428;-69
2023/05/19 00:18:03;;;;;;;5.67;2.73;;;12.90;99.90;;;;;;5118704;27;20417;-69
2023/05/19 00:20:28;;;;;;;5.93;3.30;;;12.90;99.90;;;;;;5136310;27;20421;-69
2023/05/19 00:22:54;;;;;;;5.57;2.50;;;12.80;99.90;;;;;;5133282;27;20192;-68
2023/05/19 00:25:20;;;;;;;2.10;1.87;;;12.90;99.90;;;;;;5114591;27;20575;-69
2023/05/19 00:27:45;;;;;;;6.07;2.73;;;12.80;99.90;;;;;;5132962;27;20747;-69
2023/05/19 00:30:11;;;;;;;5.20;2.93;;;12.80;99.90;;;;;;5114645;27;20196;-69
2023/05/19 00:32:37;;;;;;;4.63;2.60;;;12.80;99.90;;;;;;5132991;27;20185;-69
2023/05/19 00:35:03;;;;;;;3.73;2.20;;;12.80;99.90;;;;;;5133037;27;20906;-69
2023/05/19 00:37:28;;;;;;;2.90;2.47;;;12.70;99.90;;;;;;5132856;27;20209;-69
2023/05/19 00:39:54;;;;;;;4.37;2.10;;;12.70;99.90;;;;;;5114634;27;20184;-69
2023/05/19 00:42:20;;;;;;;13.27;2.93;;;12.60;99.90;;;;;;5132720;27;20675;-69
2023/05/19 00:44:46;;;;;;;4.43;2.60;;;12.60;99.90;;;;;;5114269;27;20192;-70
2023/05/19 00:47:11;;;;;;;6.27;2.33;;;12.50;99.90;;;;;;5132772;27;20456;-69
2023/05/19 00:49:37;;;;;;;2.73;2.17;;;12.50;99.90;;;;;;5132689;27;20202;-69
2023/05/19 00:52:05;;;;;;;3.70;2.33;;;12.50;99.90;;;;;;5132577;27;20669;-69
2023/05/19 00:54:32;;;;;;;4.57;2.50;;;12.50;99.90;;;;;;5132378;27;20226;-69
2023/05/19 00:56:58;;;;;;;4.20;2.43;;;12.50;99.90;;;;;;5113910;27;20445;-69
2023/05/19 00:59:24;;;;;;;4.40;2.67;;;12.50;99.90;;;;;;5132480;27;20425;-69
2023/05/19 01:01:51;;;;;;;8.43;3.33;;;12.50;99.90;;;;;;5132272;27;20425;-69
2023/05/19 01:04:18;;;;;;;6.80;3.10;;;12.50;99.90;;;;;;5132503;27;20421;-69
2023/05/19 01:06:53;;;;;;;3.60;2.60;;;12.50;99.90;;;;;;5132211;27;20433;-69
2023/05/19 01:09:21;;;;;;;4.70;2.57;;;12.40;99.90;;;;;;5132288;27;20413;-69
2023/05/19 01:11:47;;;;;;;5.70;2.50;;;12.40;99.90;;;;;;5132375;27;20428;-69
2023/05/19 01:14:13;;;;;;;5.17;2.60;;;12.50;99.90;;;;;;5112981;27;20454;-69
2023/05/19 01:16:53;;;;;;;6.23;2.30;;;12.40;99.90;;;;;;5132185;27;20536;-68
2023/05/19 01:19:47;;;;;;;4.73;2.93;;;12.40;99.90;;;;;;5132478;27;20449;-69
2023/05/19 01:22:43;;;;;;;5.73;2.67;;;12.40;99.90;;;;;;5132206;27;20418;-70
2023/05/19 01:25:33;;;;;;;6.93;2.70;;;12.40;99.90;;;;;;5132372;27;20426;-69
2023/05/19 01:28:05;;;;;;;5.60;2.60;;;12.40;99.90;;;;;;5132076;27;21007;-69
2023/05/19 01:30:43;;;;;;;9.20;2.90;;;12.40;99.90;;;;;;5113400;27;20432;-69
2023/05/19 01:33:15;;;;;;;6.93;2.77;;;12.30;99.90;;;;;;5131884;27;20500;-69
2023/05/19 01:35:42;;;;;;;3.83;2.53;;;12.30;99.90;;;;;;5113079;27;20421;-69
2023/05/19 01:38:10;;;;;;;5.10;2.90;;;12.30;99.90;;;;;;5131896;27;20513;-69
2023/05/19 01:40:38;;;;;;;8.20;2.93;;;12.20;99.90;;;;;;5113643;27;20508;-69
2023/05/19 01:43:03;;;;;;;7.97;3.30;;;12.30;99.90;;;;;;5131636;27;20440;-70
2023/05/19 01:45:31;;;;;;;8.70;2.90;;;12.20;99.90;;;;;;5131789;27;20426;-69
2023/05/19 01:48:00;;;;;;;4.67;3.53;;;12.20;99.90;;;;;;5131604;27;20200;-69
2023/05/19 01:50:26;;;;;;;5.13;3.33;;;12.20;99.90;;;;;;5131875;27;20466;-69
2023/05/19 01:52:52;;;;;;;3.87;2.97;;;12.20;99.90;;;;;;5113512;27;20883;-70
2023/05/19 01:55:18;;;;;;;4.80;2.93;;;12.20;99.90;;;;;;5113119;27;20425;-70
2023/05/19 01:58:10;;;;;;;6.17;3.67;;;12.20;99.90;;;;;;5131521;27;20441;-69
2023/05/19 02:00:54;;;;;;;7.17;3.50;;;12.10;99.90;;;;;;5131444;27;20436;-70
2023/05/19 02:03:45;;;;;;;4.93;2.80;;;12.10;99.90;;;;;;5131721;27;20417;-70
2023/05/19 02:06:29;;;;;;;10.40;3.57;;;12.00;99.90;;;;;;5131863;27;20425;-70
2023/05/19 02:09:12;;;;;;;6.37;3.70;;;11.90;99.90;;;;;;5113716;27;20427;-70
2023/05/19 02:11:52;;;;;;;7.10;3.10;;;11.90;99.90;;;;;;5132164;27;20574;-70
2023/05/19 02:14:34;;;;;;;12.33;3.50;;;11.80;99.90;;;;;;5113244;27;20547;-70
2023/05/19 02:17:02;;;;;;;7.80;3.60;;;11.90;99.90;;;;;;5131901;27;20459;-70
2023/05/19 02:19:30;;;;;;;8.23;3.00;;;11.80;99.90;;;;;;5131937;27;20444;-70
2023/05/19 02:21:56;;;;;;;7.60;3.63;;;11.80;99.90;;;;;;5132134;27;20906;-70
2023/05/19 02:24:22;;;;;;;5.70;2.80;;;11.80;99.90;;;;;;5130971;27;20529;-70
2023/05/19 02:26:52;;;;;;;6.60;3.40;;;11.80;99.90;;;;;;5131550;27;20564;-70
2023/05/19 02:29:18;;;;;;;10.83;2.97;;;11.80;99.90;;;;;;5131487;27;20192;-71
2023/05/19 02:31:43;;;;;;;6.03;3.10;;;11.80;99.90;;;;;;5131012;27;20457;-70
2023/05/19 02:34:09;;;;;;;12.23;3.00;;;11.80;99.90;;;;;;5112385;27;20502;-70
2023/05/19 02:36:35;;;;;;;7.37;3.37;;;11.80;99.90;;;;;;5130626;27;20199;-70
2023/05/19 02:39:04;;;;;;;4.67;2.90;;;11.80;99.90;;;;;;5130705;27;20203;-70
2023/05/19 02:41:30;;;;;;;10.60;3.83;;;11.80;99.90;;;;;;5130389;27;20455;-70
2023/05/19 02:43:56;;;;;;;6.73;3.57;;;11.70;99.90;;;;;;5112436;27;21004;-70
2023/05/19 02:46:22;;;;;;;4.57;2.90;;;11.80;99.90;;;;;;5112070;27;20442;-70
2023/05/19 02:48:49;;;;;;;6.13;2.93;;;11.70;99.90;;;;;;5111913;27;20486;-70
2023/05/19 02:51:15;;;;;;;10.50;3.87;;;11.70;99.90;;;;;;5130399;27;20433;-70
2023/05/19 02:53:40;;;;;;;4.80;3.30;;;11.70;99.90;;;;;;5094799;27;20591;-71
2023/05/19 02:56:06;;;;;;;4.83;3.63;;;11.70;99.90;;;;;;5130232;27;20220;-70
2023/05/19 02:58:31;;;;;;;6.27;3.33;;;11.70;99.90;;;;;;5130335;27;20196;-69
2023/05/19 03:00:57;;;;;;;3.33;3.00;;;11.60;99.90;;;;;;5130079;27;20663;-69
2023/05/19 03:03:22;;;;;;;5.07;3.10;;;11.70;99.90;;;;;;5130097;27;20219;-69
2023/05/19 03:05:48;;;;;;;3.90;3.13;;;11.70;99.90;;;;;;5130134;27;20215;-69
2023/05/19 03:08:14;;;;;;;5.83;3.30;;;11.70;99.90;;;;;;5111844;27;20184;-69
2023/05/19 03:10:40;;;;;;;7.43;3.90;;;11.70;99.90;;;;;;5130098;27;20546;-69
2023/05/19 03:13:05;;;;;;;6.60;3.57;;;11.70;99.90;;;;;;5130050;27;20286;-69
2023/05/19 03:15:31;;;;;;;4.40;3.10;;;11.70;99.90;;;;;;5130495;27;20427;-69
2023/05/19 03:17:57;;;;;;;5.57;3.10;;;11.70;99.90;;;;;;5130033;27;20592;-69
2023/05/19 03:20:23;;;;;;;7.17;3.50;;;11.70;99.90;;;;;;5130106;27;20191;-69
2023/05/19 03:22:49;;;;;;;5.20;3.80;;;11.70;99.90;;;;;;5130011;27;20239;-69
2023/05/19 03:25:15;;;;;;;4.83;3.23;;;11.80;99.90;;;;;;5111867;27;20954;-69
2023/05/19 03:27:41;;;;;;;6.63;3.60;;;11.70;99.90;;;;;;5130128;27;20499;-69
2023/05/19 03:30:07;;;;;;;10.37;3.43;;;11.80;99.90;;;;;;5111623;28;20424;-70
2023/05/19 03:32:36;;;;;;;8.83;3.80;;;11.70;99.90;;;;;;5130173;27;20187;-70
2023/05/19 03:35:03;;;;;;;5.00;3.07;;;11.70;99.90;;;;;;5111800;27;20501;-70
2023/05/19 03:37:29;;;;;;;10.23;4.17;;;11.70;99.90;;;;;;5129892;27;20446;-69
2023/05/19 03:39:54;;;;;;;10.53;4.23;;;11.60;99.90;;;;;;5130373;27;20512;-70
2023/05/19 03:42:20;;;;;;;8.60;3.30;;;11.70;99.90;;;;;;5130223;27;20216;-70
2023/05/19 03:44:45;;;;;;;7.43;3.47;;;11.70;99.90;;;;;;5130199;27;20186;-70
2023/05/19 03:47:11;;;;;;;8.43;4.23;;;11.70;99.90;;;;;;5130041;27;20200;-70
2023/05/19 03:49:37;;;;;;;7.37;3.37;;;11.70;99.90;;;;;;5130007;27;20262;-69
2023/05/19 03:52:02;;;;;;;11.53;3.50;;;11.70;99.90;;;;;;5129620;28;20257;-70
2023/05/19 03:54:28;;;;;;;8.70;3.57;;;11.70;99.90;;;;;;5129767;28;20538;-70
2023/05/19 03:56:54;;;;;;;17.90;4.03;;;11.70;99.90;;;;;;5129294;27;20202;-70
2023/05/19 03:59:19;;;;;;;7.90;3.53;;;11.60;99.90;;;;;;5129464;28;20678;-70
2023/05/19 04:01:45;;;;;;;11.03;3.53;;;11.50;99.90;;;;;;5110870;28;20223;-70
2023/05/19 04:04:10;;;;;;;8.53;4.17;;;11.60;99.90;;;;;;5129236;28;20202;-70
2023/05/19 04:06:36;;;;;;;7.87;3.60;;;11.50;99.90;;;;;;5129359;27;20705;-69
2023/05/19 04:09:03;;;;;;;8.33;3.77;;;11.60;99.90;;;;;;5110563;28;20190;-69
2023/05/19 04:11:29;;;;;;;15.93;4.00;;;11.60;99.90;;;;;;5110676;28;20188;-70
2023/05/19 04:13:55;;;;;;;9.93;4.07;;;11.50;99.90;;;;;;5129329;28;20475;-69
2023/05/19 04:16:20;;;;;;;6.90;3.40;;;11.60;99.90;;;;;;5129470;27;20235;-69
2023/05/19 04:18:46;;;;;;;9.63;3.90;;;11.60;99.90;;;;;;5129583;28;20188;-71
2023/05/19 04:21:11;;;;;;;11.60;4.03;;;11.60;99.90;;;;;;5111225;28;20181;-70
2023/05/19 04:23:37;;;;;;;9.60;4.60;;;11.60;99.90;;;;;;5129983;28;20183;-69
2023/05/19 04:26:05;;;;;;;9.50;4.40;;;11.60;99.90;;;;;;5129845;27;20287;-70
2023/05/19 04:28:32;;;;;;;13.03;3.77;;;11.60;99.90;;;;;;5129997;28;20171;-70
2023/05/19 04:30:58;;;;;;;11.67;4.10;;;11.60;99.90;;;;;;5129775;27;21237;-69
2023/05/19 04:33:24;;;;;;;7.90;3.57;;;11.40;99.90;;;;;;5111184;28;20499;-70
2023/05/19 04:35:50;;;;;;;11.10;4.20;;;11.40;99.90;;;;;;5129778;27;20862;-69
2023/05/19 04:38:17;;;;;;;17.90;3.73;;;11.40;99.90;;;;;;5111351;28;20229;-69
2023/05/19 04:40:43;;;;;;;20.30;4.60;;;11.40;99.90;;;;;;5129358;28;20429;-69
2023/05/19 04:43:10;;;;;;;13.27;4.17;;;11.50;99.90;;;;;;5129197;28;20436;-70
2023/05/19 04:45:36;;;;;;;18.40;4.63;;;11.60;99.90;;;;;;5128927;27;20228;-69
2023/05/19 04:48:02;;;;;;;15.37;4.47;;;11.70;99.90;;;;;;5094226;27;20420;-69
2023/05/19 04:50:29;;;;;;;15.27;4.30;;;11.60;99.90;;;;;;5132810;27;20419;-70
2023/05/19 04:52:57;;;;;;;7.30;3.47;;;11.70;99.90;;;;;;5132536;27;20456;-70
2023/05/19 04:55:23;;;;;;;12.37;4.20;;;11.70;99.90;;;;;;5132529;27;20990;-70
2023/05/19 04:57:48;;;;;;;12.10;3.67;;;11.80;99.90;;;;;;5132432;27;20534;-70
2023/05/19 05:00:14;;;;;;;11.83;4.67;;;11.80;99.90;;;;;;5132407;27;20840;-69
2023/05/19 05:02:41;;;;;;;12.80;4.17;;;11.90;99.90;;;;;;5132615;27;20186;-69
2023/05/19 05:05:08;;;;;;;10.10;3.57;;;12.00;99.90;;;;;;5131226;27;21021;-69
2023/05/19 05:07:33;;;;;;;9.50;4.13;;;12.00;99.90;;;;;;5130878;27;20435;-69
2023/05/19 05:09:59;;;;;;;10.50;4.20;;;12.10;99.90;;;;;;5130880;27;20420;-69
2023/05/19 05:12:25;;;;;;;10.57;3.93;;;12.40;99.90;;;;;;5130823;27;20225;-69
2023/05/19 05:14:51;;;;;;;9.53;3.90;;;12.40;99.90;;;;;;5130371;27;20207;-68
2023/05/19 05:17:16;;;;;;;12.37;3.70;;;12.40;99.90;;;;;;5131038;27;20573;-69
2023/05/19 05:19:42;;;;;;;21.70;3.63;;;12.50;99.90;;;;;;5130665;27;20525;-68
2023/05/19 05:22:08;;;;;;;4.40;2.70;;;12.50;99.90;;;;;;5130712;27;20185;-68
2023/05/19 05:24:34;;;;;;;18.47;4.27;;;12.60;99.90;;;;;;5130442;27;20181;-69
2023/05/19 05:27:00;;;;;;;14.70;3.70;;;12.70;99.90;;;;;;5130590;27;20470;-69
2023/05/19 05:29:26;;;;;;;8.33;3.37;;;12.70;99.90;;;;;;5130438;27;20486;-69
2023/05/19 05:31:51;;;;;;;9.27;3.10;;;12.70;99.90;;;;;;5130454;27;20192;-69
2023/05/19 05:34:17;;;;;;;9.83;3.70;;;12.80;99.90;;;;;;5130498;27;20223;-69
2023/05/19 05:36:42;;;;;;;6.63;3.47;;;13.00;99.90;;;;;;5111521;27;20794;-68
2023/05/19 05:39:08;;;;;;;13.43;3.80;;;13.10;99.90;;;;;;5130393;27;20553;-68
2023/05/19 05:41:34;;;;;;;8.53;3.80;;;13.20;99.90;;;;;;5130085;27;20224;-68
2023/05/19 05:44:02;;;;;;;7.40;3.67;;;13.20;99.90;;;;;;5130304;27;20251;-69
2023/05/19 05:46:28;;;;;;;10.00;3.73;;;13.20;99.90;;;;;;5130197;27;20342;-69
2023/05/19 05:48:54;;;;;;;15.33;4.30;;;13.20;99.90;;;;;;5130118;27;20497;-69
2023/05/19 05:51:21;;;;;;;13.33;4.83;;;13.20;99.90;;;;;;5130117;27;20181;-69
2023/05/19 05:53:53;;;;;;;10.67;4.50;;;13.30;99.90;;;;;;5130039;27;20462;-69
2023/05/19 05:56:20;;;;;;;10.73;4.40;;;13.30;99.90;;;;;;5130214;27;20426;-69
2023/05/19 05:58:46;;;;;;;14.20;4.57;;;13.30;99.90;;;;;;5129680;27;20482;-69
2023/05/19 06:01:11;;;;;;;11.30;4.47;;;13.20;99.90;;;;;;5130013;27;20918;-69
2023/05/19 06:03:43;;;;;;;8.50;3.80;;;13.30;99.90;;;;;;5111788;27;20192;-69
2023/05/19 06:06:09;;;;;;;10.07;3.80;;;13.30;99.90;;;;;;5129897;27;20201;-69
2023/05/19 06:08:35;;;;;;;8.97;3.73;;;13.30;99.90;;;;;;5129824;27;20435;-69
2023/05/19 06:11:07;;;;;;;16.37;4.40;;;13.40;99.90;;;;;;5129569;27;21015;-69
2023/05/19 06:13:33;;;;;;;10.30;3.67;;;13.30;99.90;;;;;;5129682;27;20217;-69
2023/05/19 06:15:58;;;;;;;10.23;3.90;;;13.20;99.90;;;;;;5129578;27;20470;-69
2023/05/19 06:18:24;;;;;;;12.47;4.40;;;13.20;99.90;;;;;;5130019;27;20454;-69
2023/05/19 06:20:50;;;;;;;10.80;3.90;;;13.10;99.90;;;;;;5111441;27;20189;-69
2023/05/19 06:23:15;;;;;;;25.47;6.80;;;13.20;99.90;;;;;;5130264;27;20210;-69
2023/05/19 06:25:41;;;;;;;13.50;4.17;;;13.30;99.90;;;;;;5130199;27;20244;-69
2023/05/19 06:28:06;;;;;;;14.23;4.00;;;13.30;99.90;;;;;;5130013;27;20495;-69
2023/05/19 06:30:32;;;;;;;12.97;4.63;;;13.60;99.90;;;;;;5130538;27;20185;-69
2023/05/19 06:32:58;;;;;;;11.30;3.70;;;13.70;99.90;;;;;;5130003;27;20219;-69
2023/05/19 06:35:23;;;;;;;8.77;3.63;;;13.70;99.90;;;;;;5130032;27;20728;-69
2023/05/19 06:37:49;;;;;;;11.80;4.13;;;13.90;99.90;;;;;;5129708;27;20230;-69
2023/05/19 06:40:15;;;;;;;5.87;3.67;;;14.00;99.90;;;;;;5130685;27;20185;-69
2023/05/19 06:42:40;;;;;;;9.93;3.47;;;14.00;99.90;;;;;;5129588;27;20665;-70
2023/05/19 06:45:06;;;;;;;9.50;3.70;;;13.90;99.90;;;;;;5129565;27;20237;-69
2023/05/19 06:47:32;;;;;;;13.20;4.03;;;13.90;99.90;;;;;;5129392;27;20204;-69
2023/05/19 06:49:57;;;;;;;11.87;3.33;;;13.80;99.90;;;;;;5129078;27;20418;-69
2023/05/19 06:52:23;;;;;;;8.50;3.60;;;13.90;99.90;;;;;;5129045;27;20549;-69
2023/05/19 06:54:49;;;;;;;9.30;3.90;;;13.90;99.90;;;;;;5129127;27;20217;-69
2023/05/19 06:57:15;;;;;;;12.73;3.67;;;13.70;99.90;;;;;;5110312;27;20288;-69
2023/05/19 06:59:42;;;;;;;8.67;3.23;;;13.70;99.90;;;;;;5129346;27;20594;-69
2023/05/19 07:02:08;;;;;;;9.37;4.00;;;13.80;99.90;;;;;;5110473;27;20202;-69
2023/05/19 07:04:34;;;;;;;7.00;4.03;;;13.90;99.90;;;;;;5129047;27;20506;-69
2023/05/19 07:06:59;;;;;;;9.87;3.50;;;13.80;99.90;;;;;;5110754;27;20841;-69
2023/05/19 07:09:25;;;;;;;9.23;3.93;;;13.90;99.90;;;;;;5128952;27;20903;-69
2023/05/19 07:11:51;;;;;;;8.17;3.40;;;13.90;99.90;;;;;;5128109;27;20220;-69
2023/05/19 07:14:16;;;;;;;14.20;5.40;;;14.00;99.90;;;;;;5110257;27;20308;-68
2023/05/19 07:16:42;;;;;;;9.20;3.80;;;13.90;99.90;;;;;;5110155;27;20259;-69
2023/05/19 07:19:07;;;;;;;6.60;3.17;;;13.80;99.90;;;;;;5129014;27;20590;-68
2023/05/19 07:21:33;;;;;;;7.80;4.47;;;13.80;99.90;;;;;;5110570;28;20192;-68
2023/05/19 07:23:59;;;;;;;11.10;3.70;;;13.80;99.90;;;;;;5129105;27;20233;-68
2023/05/19 07:26:25;;;;;;;16.57;4.27;;;13.80;99.90;;;;;;5129181;27;20672;-68
2023/05/19 07:28:51;;;;;;;13.83;4.80;;;13.60;99.90;;;;;;5129595;27;20205;-68
2023/05/19 07:31:16;;;;;;;13.80;4.40;;;13.70;99.90;;;;;;5129786;27;20503;-68
2023/05/19 07:33:42;;;;;;;9.03;3.57;;;13.60;99.90;;;;;;5112294;27;20216;-70
2023/05/19 07:36:08;;;;;;;16.43;4.70;;;13.60;99.90;;;;;;5112013;27;20212;-68
2023/05/19 07:38:34;;;;;;;11.60;3.43;;;13.50;99.90;;;;;;5130553;27;20195;-69
2023/05/19 07:41:01;;;;;;;9.57;3.77;;;13.40;99.90;;;;;;5112495;27;20189;-68
2023/05/19 07:43:26;;;;;;;6.93;3.70;;;13.40;99.90;;;;;;5131353;27;20452;-68
2023/05/19 07:45:53;;;;;;;10.00;4.10;;;13.30;99.90;;;;;;5130425;27;20908;-68
2023/05/19 07:48:21;;;;;;;8.47;3.90;;;13.20;99.90;;;;;;5130246;27;20195;-68
2023/05/19 07:50:47;;;;;;;7.37;3.33;;;13.30;99.90;;;;;;5130683;27;20414;-69
2023/05/19 07:53:13;;;;;;;9.53;4.90;;;13.20;99.90;;;;;;5130144;28;20569;-68
2023/05/19 07:55:39;;;;;;;16.37;4.40;;;13.30;99.90;;;;;;5130069;27;20989;-69
2023/05/19 07:58:05;;;;;;;11.20;4.27;;;13.20;99.90;;;;;;5129179;28;20467;-71
2023/05/19 08:00:31;;;;;;;10.80;4.43;;;13.10;99.90;;;;;;5129654;27;20418;-69
2023/05/19 08:02:57;;;;;;;11.90;3.90;;;13.10;99.90;;;;;;5129662;28;20413;-68
2023/05/19 08:05:24;;;;;;;8.27;4.20;;;13.10;99.90;;;;;;5128585;28;20196;-68
2023/05/19 08:07:50;;;;;;;13.73;4.40;;;13.00;99.90;;;;;;5128385;28;20204;-68
2023/05/19 08:10:15;;;;;;;5.27;3.90;;;13.10;99.90;;;;;;5109618;28;20461;-69
2023/05/19 08:12:41;;;;;;;16.53;5.33;;;13.00;99.90;;;;;;5110016;28;20181;-70
2023/05/19 08:15:07;;;;;;;7.70;4.10;;;13.00;99.90;;;;;;5128674;28;20209;-67
2023/05/19 08:17:33;;;;;;;9.07;3.97;;;13.00;99.90;;;;;;5128866;27;20204;-70
2023/05/19 08:19:59;;;;;;;9.50;4.30;;;12.90;99.90;;;;;;5128710;28;20518;-70
2023/05/19 08:22:24;;;;;;;15.70;4.30;;;12.90;99.90;;;;;;5130479;27;20623;-70
2023/05/19 08:24:50;;;;;;;9.53;4.60;;;12.90;99.90;;;;;;5132386;27;20223;-68
2023/05/19 08:27:16;;;;;;;8.40;4.20;;;12.90;99.90;;;;;;5132511;27;20212;-68
2023/05/19 08:29:42;;;;;;;11.30;4.03;;;12.90;99.90;;;;;;5132386;27;20181;-69
2023/05/19 08:32:08;;;;;;;10.87;4.60;;;13.00;99.90;;;;;;5132359;27;20193;-68
2023/05/19 08:34:33;;;;;;;10.83;4.20;;;13.00;99.90;;;;;;5132349;27;20573;-68
2023/05/19 08:36:59;;;;;;;9.77;3.93;;;13.10;99.90;;;;;;5132302;27;20543;-68
2023/05/19 08:39:26;;;;;;;9.53;3.93;;;13.30;99.90;;;;;;5132308;27;20181;-69
2023/05/19 08:41:54;;;;;;;7.93;4.10;;;13.40;99.90;;;;;;5132141;27;20199;-69
2023/05/19 08:44:21;;;;;;;7.43;3.80;;;13.50;99.90;;;;;;5132360;27;20947;-68
2023/05/19 08:46:48;;;;;;;9.90;4.53;;;13.50;99.90;;;;;;5132358;27;20438;-70
2023/05/19 08:49:15;;;;;;;10.10;4.30;;;13.60;99.90;;;;;;5132312;27;20904;-70
2023/05/19 08:52:20;;;;;;;18.63;5.30;;;13.60;99.90;;;;;;5132085;27;20410;-70
2023/05/19 08:54:53;;;;;;;6.70;4.60;;;13.60;99.90;;;;;;5132027;27;20972;-69
2023/05/19 08:57:21;;;;;;;9.83;4.10;;;13.60;99.90;;;;;;5132113;27;20433;-69
2023/05/19 08:59:50;;;;;;;5.27;3.70;;;13.60;99.90;;;;;;5131884;27;20423;-69
2023/05/19 09:02:16;;;;;;;7.40;3.53;;;13.60;99.90;;;;;;5131767;27;20411;-69
2023/05/19 09:04:44;;;;;;;12.03;4.30;;;13.50;99.90;;;;;;5132141;27;20433;-69
2023/05/19 09:07:12;;;;;;;8.13;4.37;;;13.50;99.90;;;;;;5131638;27;20994;-69
2023/05/19 09:09:41;;;;;;;5.80;4.10;;;13.50;99.90;;;;;;5131297;27;20415;-69
2023/05/19 09:12:07;;;;;;;9.53;4.10;;;13.40;99.90;;;;;;5131216;27;20418;-69
2023/05/19 09:14:34;;;;;;;10.23;4.50;;;13.40;99.90;;;;;;5130968;27;20494;-69
2023/05/19 09:17:00;;;;;;;13.10;4.10;;;13.40;99.90;;;;;;5131120;27;20269;-69
2023/05/19 09:19:28;;;;;;;18.27;4.93;;;13.40;99.90;;;;;;5130881;27;20910;-69
2023/05/19 09:22:04;;;;;;;12.40;4.47;;;13.40;99.90;;;;;;5130830;27;20414;-69
2023/05/19 09:24:30;;;;;;;16.37;7.10;;;13.40;99.90;;;;;;5130959;27;20442;-69
2023/05/19 09:26:56;;;;;;;17.93;5.20;;;13.40;99.90;;;;;;5130656;27;20946;-69
2023/05/19 09:29:22;;;;;;;12.17;4.10;;;13.40;99.90;;;;;;5130540;27;20422;-69
2023/05/19 09:31:52;;;;;;;11.63;4.03;;;13.50;99.90;;;;;;5130488;27;20421;-69
2023/05/19 09:34:19;;;;;;;12.67;4.90;;;13.40;99.90;;;;;;5129826;27;20231;-69
2023/05/19 09:36:48;;;;;;;6.40;3.93;;;13.40;99.90;;;;;;5130470;27;20506;-69
2023/05/19 09:39:15;;;;;;;11.77;3.90;;;13.40;99.90;;;;;;5111764;27;20810;-69
2023/05/19 09:41:41;;;;;;;9.80;4.03;;;13.40;99.90;;;;;;5130337;27;20437;-68
2023/05/19 09:44:11;;;;;;;7.20;4.10;;;13.50;99.90;;;;;;5130281;27;20418;-69
2023/05/19 09:46:36;;;;;;;8.70;3.93;;;13.50;99.90;;;;;;5112304;27;21084;-68
2023/05/19 09:49:09;;;;;;;7.60;3.93;;;13.50;99.90;;;;;;5130289;27;20425;-68
2023/05/19 09:51:40;;;;;;;10.57;4.37;;;13.60;99.90;;;;;;5130214;27;20233;-69
2023/05/19 09:54:08;;;;;;;10.63;4.13;;;13.70;99.90;;;;;;5129964;27;20461;-69
2023/05/19 09:56:35;;;;;;;9.30;4.00;;;13.70;99.90;;;;;;5111559;27;20946;-69
2023/05/19 09:59:02;;;;;;;9.97;3.87;;;13.70;99.90;;;;;;5129946;27;20454;-69
2023/05/19 10:01:32;;;;;;;10.93;3.97;;;13.60;99.90;;;;;;5111614;27;20475;-69
2023/05/19 10:03:59;;;;;;;11.47;4.47;;;13.60;99.90;;;;;;5129903;27;20507;-69
2023/05/19 10:06:25;;;;;;;8.57;4.37;;;13.50;99.90;;;;;;5129897;27;20462;-69
2023/05/19 10:08:53;;;;;;;12.93;4.10;;;13.50;99.90;;;;;;5129862;27;20844;-69
2023/05/19 10:11:21;;;;;;;11.57;3.93;;;13.50;99.90;;;;;;5129665;27;20450;-69
2023/05/19 10:13:50;;;;;;;9.80;3.10;;;13.50;99.90;;;;;;5111226;27;20470;-69
2023/05/19 10:16:17;;;;;;;4.93;3.10;;;13.50;99.90;;;;;;5111125;27;20884;-69
2023/05/19 10:18:43;;;;;;;9.30;4.40;;;13.40;99.90;;;;;;5129474;27;20414;-69
2023/05/19 10:21:09;;;;;;;8.60;4.20;;;13.50;99.90;;;;;;5130088;27;20414;-68
2023/05/19 10:23:35;;;;;;;6.40;4.40;;;13.50;99.90;;;;;;5129597;27;20419;-68
2023/05/19 10:26:03;;;;;;;12.00;4.03;;;13.50;99.90;;;;;;5129500;27;20434;-68
2023/05/19 10:28:42;;;;;;;10.67;4.03;;;13.50;99.90;;;;;;5110758;27;20185;-68
2023/05/19 10:31:14;;;;;;;9.87;3.77;;;13.60;99.90;;;;;;5129379;27;20478;-70
2023/05/19 10:34:22;;;;;;;11.67;3.80;;;13.60;99.90;;;;;;5129485;27;20461;-68
2023/05/19 10:36:57;;;;;;;9.17;4.23;;;13.70;99.90;;;;;;5129178;27;20426;-70
2023/05/19 10:39:30;;;;;;;8.27;3.83;;;13.60;99.90;;;;;;5129221;27;20414;-70
2023/05/19 10:42:05;;;;;;;10.00;3.93;;;13.60;99.90;;;;;;5129291;27;20868;-69
2023/05/19 10:44:40;;;;;;;11.10;4.10;;;13.70;99.90;;;;;;5128980;27;20853;-70
2023/05/19 10:47:07;;;;;;;10.63;4.30;;;13.70;99.90;;;;;;5128175;27;20869;-70
2023/05/19 10:49:36;;;;;;;10.90;3.97;;;13.80;99.90;;;;;;5128918;27;20410;-69
2023/05/19 10:52:02;;;;;;;8.17;3.27;;;13.90;99.90;;;;;;5129093;27;20441;-70
2023/05/19 10:54:46;;;;;;;8.03;3.97;;;13.90;99.90;;;;;;5128722;27;20506;-70
2023/05/19 10:57:23;;;;;;;8.60;3.70;;;13.90;99.90;;;;;;5128879;27;20526;-69
2023/05/19 10:59:49;;;;;;;9.77;4.60;;;13.90;99.90;;;;;;5128903;27;21165;-70
2023/05/19 11:02:41;;;;;;;10.70;4.40;;;14.00;99.90;;;;;;5129007;27;20438;-70
2023/05/19 11:05:13;;;;;;;9.03;4.10;;;14.00;99.90;;;;;;5128797;27;20828;-69
2023/05/19 11:07:46;;;;;;;5.87;3.77;;;14.10;99.90;;;;;;5128670;27;20430;-70
2023/05/19 11:10:12;;;;;;;7.73;3.50;;;14.00;99.90;;;;;;5128893;27;20423;-69
2023/05/19 11:12:43;;;;;;;8.90;3.50;;;14.00;99.90;;;;;;5128837;27;20493;-69
2023/05/19 11:15:11;;;;;;;12.83;4.10;;;13.90;99.90;;;;;;5128431;27;20270;-69
2023/05/19 11:17:40;;;;;;;10.37;4.17;;;13.90;99.90;;;;;;5128483;27;20423;-68
2023/05/19 11:20:10;;;;;;;9.17;3.70;;;13.90;99.90;;;;;;5128372;27;20914;-69
2023/05/19 11:22:35;;;;;;;3.93;3.20;;;14.00;99.90;;;;;;5128488;27;21218;-68
2023/05/19 11:25:02;;;;;;;5.67;3.77;;;14.10;99.90;;;;;;5109866;27;20510;-69
2023/05/19 11:27:33;;;;;;;12.00;3.90;;;14.00;99.90;;;;;;5128380;27;20261;-69
2023/05/19 11:30:05;;;;;;;7.57;3.00;;;14.10;99.90;;;;;;5128421;27;20422;-69
2023/05/19 11:32:37;;;;;;;5.07;2.77;;;14.00;99.90;;;;;;5109561;27;20425;-69
2023/05/19 11:35:04;;;;;;;8.20;3.83;;;14.00;99.90;;;;;;5109867;27;20522;-68
2023/05/19 11:37:33;;;;;;;6.70;3.70;;;14.00;99.90;;;;;;5128299;27;20461;-69
2023/05/19 11:40:01;;;;;;;5.20;2.90;;;14.10;99.90;;;;;;5128595;27;20942;-69
2023/05/19 11:42:27;;;;;;;4.80;3.10;;;14.20;99.90;;;;;;5128724;27;20485;-69
2023/05/19 11:44:55;;;;;;;5.03;3.60;;;14.30;99.90;;;;;;5128682;27;20415;-69
2023/05/19 11:47:21;;;;;;;6.50;2.53;;;14.40;99.90;;;;;;5128680;27;20283;-68
2023/05/19 11:49:47;;;;;;;5.20;3.00;;;14.60;99.90;;;;;;5109833;27;20523;-67
2023/05/19 11:52:13;;;;;;;5.00;2.80;;;14.70;99.90;;;;;;5129092;27;20308;-68
2023/05/19 11:54:41;;;;;;;4.67;3.27;;;14.70;99.90;;;;;;5128495;28;20486;-69
2023/05/19 11:57:09;;;;;;;7.63;3.53;;;14.70;99.90;;;;;;5130658;27;20793;-69
2023/05/19 11:59:37;;;;;;;8.77;3.00;;;14.60;99.90;;;;;;5135383;27;21018;-69
2023/05/19 12:02:16;;;;;;;4.50;3.17;;;14.70;99.90;;;;;;5135603;27;20415;-69
2023/05/19 12:04:41;;;;;;;4.40;3.00;;;14.70;99.90;;;;;;5116975;27;20418;-69
2023/05/19 12:07:07;;;;;;;6.37;3.50;;;14.60;99.90;;;;;;5135348;27;20449;-69
2023/05/19 12:09:33;;;;;;;12.33;3.50;;;14.60;99.90;;;;;;5135563;27;20214;-69
2023/05/19 12:11:59;;;;;;;8.77;4.03;;;14.50;99.90;;;;;;5135705;27;20189;-69
2023/05/19 12:14:26;;;;;;;6.10;3.87;;;14.50;99.90;;;;;;5136262;27;20200;-69
2023/05/19 12:16:51;;;;;;;7.93;3.70;;;14.60;99.90;;;;;;5117568;27;20495;-69
2023/05/19 12:19:17;;;;;;;6.93;3.10;;;14.50;99.90;;;;;;5136219;27;20415;-69
2023/05/19 12:21:43;;;;;;;10.53;3.73;;;14.50;99.90;;;;;;5136223;27;20604;-69
2023/05/19 12:24:09;;;;;;;9.93;4.00;;;14.50;99.90;;;;;;5136253;27;20172;-69
2023/05/19 12:26:36;;;;;;;10.90;3.40;;;14.70;99.90;;;;;;5117373;27;20446;-69
2023/05/19 12:29:05;;;;;;;8.60;4.00;;;14.80;99.90;;;;;;5117472;27;20427;-69
2023/05/19 12:31:31;;;;;;;7.53;4.17;;;14.80;99.90;;;;;;5136250;27;20467;-69
2023/05/19 12:33:57;;;;;;;6.67;4.70;;;14.90;99.90;;;;;;5135483;27;20544;-68
2023/05/19 12:36:23;;;;;;;10.43;4.10;;;14.90;99.90;;;;;;5135554;27;20434;-69
2023/05/19 12:38:55;;;;;;;6.83;3.70;;;14.90;99.90;;;;;;5117035;27;20192;-68
2023/05/19 12:41:23;;;;;;;7.23;3.83;;;14.90;99.90;;;;;;5135686;27;20549;-69
2023/05/19 12:43:49;;;;;;;8.07;3.97;;;15.00;99.90;;;;;;5135470;27;20816;-69
2023/05/19 12:46:17;;;;;;;7.57;3.63;;;15.00;99.90;;;;;;5135492;27;21105;-68